sensor_id;sensor_type;location;lat;lon;timestamp;pressure;altitude;pressure_sealevel;temperature;humidity
16355;BME280;8287;51.644;8.494;2023-05-29T00:01:53;100896.53;;;16.22;71.73
16355;BME280;8287;51.644;8.494;2023-05-29T00:04:19;100913.56;;;16.17;72.12
16355;BME280;8287;51.644;8.494;2023-05-29T00:06:47;100903.97;;;16.16;71.46
16355;BME280;8287;51.644;8.494;2023-05-29T00:09:13;100906.44;;;16.01;72.21
16355;BME280;8287;51.644;8.494;2023-05-29T00:11:40;100914.09;;;16.11;72.28
16355;BME280;8287;51.644;8.494;2023-05-29T00:14:08;100917.09;;;16.09;72.55
16355;BME280;8287;51.644;8.494;2023-05-29T00:16:38;100909.06;;;16.09;71.86
16355;BME280;8287;51.644;8.494;2023-05-29T00:19:04;100907.50;;;16.08;71.12
16355;BME280;8287;51.644;8.494;2023-05-29T00:21:31;100909.78;;;15.98;71.66
16355;BME280;8287;51.644;8.494;2023-05-29T00:23:58;100908.19;;;15.76;71.92
16355;BME280;8287;51.644;8.494;2023-05-29T00:26:24;100910.47;;;15.86;72.21
16355;BME280;8287;51.644;8.494;2023-05-29T00:28:51;100907.63;;;15.91;71.54
16355;BME280;8287;51.644;8.494;2023-05-29T00:31:19;100904.00;;;15.67;72.31
16355;BME280;8287;51.644;8.494;2023-05-29T00:33:46;100909.75;;;15.77;72.71
16355;BME280;8287;51.644;8.494;2023-05-29T00:36:12;100911.69;;;15.68;72.27
16355;BME280;8287;51.644;8.494;2023-05-29T00:38:39;100918.06;;;15.55;73.23
16355;BME280;8287;51.644;8.494;2023-05-29T00:41:05;100919.19;;;15.46;73.62
16355;BME280;8287;51.644;8.494;2023-05-29T00:43:32;100921.91;;;15.37;74.21
16355;BME280;8287;51.644;8.494;2023-05-29T00:45:59;100921.19;;;15.11;75.15
16355;BME280;8287;51.644;8.494;2023-05-29T00:48:27;100934.44;;;14.91;76.34
16355;BME280;8287;51.644;8.494;2023-05-29T00:50:54;100928.63;;;14.97;76.21
16355;BME280;8287;51.644;8.494;2023-05-29T00:53:21;100928.59;;;15.06;76.21
16355;BME280;8287;51.644;8.494;2023-05-29T00:55:47;100928.75;;;15.09;75.97
16355;BME280;8287;51.644;8.494;2023-05-29T00:58:14;100933.13;;;15.14;75.80
16355;BME280;8287;51.644;8.494;2023-05-29T01:00:41;100926.13;;;14.92;76.83
16355;BME280;8287;51.644;8.494;2023-05-29T01:03:08;100940.41;;;14.88;77.55
16355;BME280;8287;51.644;8.494;2023-05-29T01:05:36;100944.03;;;14.75;77.70
16355;BME280;8287;51.644;8.494;2023-05-29T01:08:03;100941.72;;;14.56;78.84
16355;BME280;8287;51.644;8.494;2023-05-29T01:10:29;100955.97;;;14.60;78.51
16355;BME280;8287;51.644;8.494;2023-05-29T01:12:59;100956.28;;;14.67;79.23
16355;BME280;8287;51.644;8.494;2023-05-29T01:15:33;100951.91;;;14.71;78.74
16355;BME280;8287;51.644;8.494;2023-05-29T01:18:12;100950.03;;;14.63;79.62
16355;BME280;8287;51.644;8.494;2023-05-29T01:20:48;100954.09;;;14.52;79.92
16355;BME280;8287;51.644;8.494;2023-05-29T01:23:50;100950.63;;;14.60;80.06
16355;BME280;8287;51.644;8.494;2023-05-29T01:28:55;100966.97;;;14.50;80.41
16355;BME280;8287;51.644;8.494;2023-05-29T01:31:25;100968.06;;;14.41;81.19
16355;BME280;8287;51.644;8.494;2023-05-29T01:33:53;100974.44;;;14.14;81.82
16355;BME280;8287;51.644;8.494;2023-05-29T01:36:20;100981.34;;;14.15;82.99
16355;BME280;8287;51.644;8.494;2023-05-29T01:38:46;100980.34;;;13.94;83.85
16355;BME280;8287;51.644;8.494;2023-05-29T01:41:14;100982.56;;;14.01;82.76
16355;BME280;8287;51.644;8.494;2023-05-29T01:43:42;100980.84;;;13.96;83.68
16355;BME280;8287;51.644;8.494;2023-05-29T01:46:10;100981.88;;;13.78;83.90
16355;BME280;8287;51.644;8.494;2023-05-29T01:48:37;100983.97;;;14.07;83.19
16355;BME280;8287;51.644;8.494;2023-05-29T01:51:04;100982.06;;;13.99;82.95
16355;BME280;8287;51.644;8.494;2023-05-29T01:53:30;100986.47;;;14.03;82.33
16355;BME280;8287;51.644;8.494;2023-05-29T01:55:57;100979.41;;;13.90;82.10
16355;BME280;8287;51.644;8.494;2023-05-29T01:58:25;100989.31;;;13.98;81.17
16355;BME280;8287;51.644;8.494;2023-05-29T02:00:52;100991.72;;;14.25;79.20
16355;BME280;8287;51.644;8.494;2023-05-29T02:03:21;100991.81;;;14.03;80.50
16355;BME280;8287;51.644;8.494;2023-05-29T02:05:49;100985.53;;;13.99;80.34
16355;BME280;8287;51.644;8.494;2023-05-29T02:08:15;100989.78;;;14.00;80.48
16355;BME280;8287;51.644;8.494;2023-05-29T02:10:42;100991.84;;;14.12;80.05
16355;BME280;8287;51.644;8.494;2023-05-29T02:13:08;100990.75;;;14.04;79.46
16355;BME280;8287;51.644;8.494;2023-05-29T02:15:35;100986.66;;;14.15;79.15
16355;BME280;8287;51.644;8.494;2023-05-29T02:18:02;100992.53;;;14.26;78.29
16355;BME280;8287;51.644;8.494;2023-05-29T02:20:30;100995.72;;;13.97;78.33
16355;BME280;8287;51.644;8.494;2023-05-29T02:22:56;101000.88;;;13.94;78.70
16355;BME280;8287;51.644;8.494;2023-05-29T02:25:23;101008.88;;;13.55;79.81
16355;BME280;8287;51.644;8.494;2023-05-29T02:27:49;101009.16;;;13.45;80.09
16355;BME280;8287;51.644;8.494;2023-05-29T02:30:16;100999.97;;;13.59;80.21
16355;BME280;8287;51.644;8.494;2023-05-29T02:32:43;101002.78;;;13.54;79.58
16355;BME280;8287;51.644;8.494;2023-05-29T02:35:09;101004.94;;;13.52;79.38
16355;BME280;8287;51.644;8.494;2023-05-29T02:37:40;101013.03;;;13.39;80.16
16355;BME280;8287;51.644;8.494;2023-05-29T02:40:07;101022.25;;;13.33;80.50
16355;BME280;8287;51.644;8.494;2023-05-29T02:42:34;101017.06;;;13.28;80.35
16355;BME280;8287;51.644;8.494;2023-05-29T02:45:01;101013.84;;;13.18;80.44
16355;BME280;8287;51.644;8.494;2023-05-29T02:47:29;101011.63;;;13.41;79.90
16355;BME280;8287;51.644;8.494;2023-05-29T02:49:55;101013.44;;;13.54;79.70
16355;BME280;8287;51.644;8.494;2023-05-29T02:52:22;101019.09;;;13.61;79.07
16355;BME280;8287;51.644;8.494;2023-05-29T02:54:50;101010.97;;;13.66;78.10
16355;BME280;8287;51.644;8.494;2023-05-29T02:57:18;101019.00;;;13.75;76.68
16355;BME280;8287;51.644;8.494;2023-05-29T02:59:45;101018.22;;;13.74;76.83
16355;BME280;8287;51.644;8.494;2023-05-29T03:02:12;101017.28;;;13.79;75.59
16355;BME280;8287;51.644;8.494;2023-05-29T03:04:38;101017.00;;;13.80;75.54
16355;BME280;8287;51.644;8.494;2023-05-29T03:07:05;101027.16;;;13.78;75.37
16355;BME280;8287;51.644;8.494;2023-05-29T03:09:32;101027.66;;;13.80;75.31
16355;BME280;8287;51.644;8.494;2023-05-29T03:12:00;101026.84;;;13.80;74.90
16355;BME280;8287;51.644;8.494;2023-05-29T03:14:27;101024.16;;;13.71;75.89
16355;BME280;8287;51.644;8.494;2023-05-29T03:16:54;101023.06;;;13.72;75.04
16355;BME280;8287;51.644;8.494;2023-05-29T03:19:21;101014.09;;;13.68;75.86
16355;BME280;8287;51.644;8.494;2023-05-29T03:21:48;101012.69;;;13.62;75.57
16355;BME280;8287;51.644;8.494;2023-05-29T03:24:15;101017.69;;;13.64;75.33
16355;BME280;8287;51.644;8.494;2023-05-29T03:26:42;101023.66;;;13.61;76.34
16355;BME280;8287;51.644;8.494;2023-05-29T03:29:09;101021.75;;;13.61;75.47
16355;BME280;8287;51.644;8.494;2023-05-29T03:31:36;101028.16;;;13.60;74.78
16355;BME280;8287;51.644;8.494;2023-05-29T03:34:02;101025.50;;;13.60;73.61
16355;BME280;8287;51.644;8.494;2023-05-29T03:36:29;101027.22;;;13.56;74.80
16355;BME280;8287;51.644;8.494;2023-05-29T03:38:57;101020.63;;;13.54;75.19
16355;BME280;8287;51.644;8.494;2023-05-29T03:41:23;101023.41;;;13.49;75.14
16355;BME280;8287;51.644;8.494;2023-05-29T03:43:51;101027.34;;;13.51;74.58
16355;BME280;8287;51.644;8.494;2023-05-29T03:46:19;101027.16;;;13.48;74.87
16355;BME280;8287;51.644;8.494;2023-05-29T03:48:46;101025.31;;;13.48;74.23
16355;BME280;8287;51.644;8.494;2023-05-29T03:51:13;101039.72;;;13.47;74.00
16355;BME280;8287;51.644;8.494;2023-05-29T03:53:39;101027.63;;;13.41;74.73
16355;BME280;8287;51.644;8.494;2023-05-29T03:56:06;101037.97;;;13.43;74.39
16355;BME280;8287;51.644;8.494;2023-05-29T03:58:32;101039.34;;;13.40;74.14
16355;BME280;8287;51.644;8.494;2023-05-29T04:00:59;101046.06;;;13.38;74.70
16355;BME280;8287;51.644;8.494;2023-05-29T04:03:27;101049.34;;;13.35;74.61
16355;BME280;8287;51.644;8.494;2023-05-29T04:05:55;101059.66;;;13.36;74.81
16355;BME280;8287;51.644;8.494;2023-05-29T04:08:21;101067.66;;;13.36;74.43
16355;BME280;8287;51.644;8.494;2023-05-29T04:10:48;101063.56;;;13.30;75.71
16355;BME280;8287;51.644;8.494;2023-05-29T04:13:18;101064.59;;;13.21;76.79
16355;BME280;8287;51.644;8.494;2023-05-29T04:15:45;101073.06;;;13.23;76.75
16355;BME280;8287;51.644;8.494;2023-05-29T04:18:12;101064.22;;;13.14;77.35
16355;BME280;8287;51.644;8.494;2023-05-29T04:20:39;101073.06;;;13.01;78.49
16355;BME280;8287;51.644;8.494;2023-05-29T04:23:06;101069.25;;;13.16;77.29
16355;BME280;8287;51.644;8.494;2023-05-29T04:25:33;101073.19;;;13.18;77.91
16355;BME280;8287;51.644;8.494;2023-05-29T04:27:59;101064.88;;;13.19;76.28
16355;BME280;8287;51.644;8.494;2023-05-29T04:30:27;101069.72;;;13.18;77.09
16355;BME280;8287;51.644;8.494;2023-05-29T04:32:54;101063.75;;;13.12;76.35
16355;BME280;8287;51.644;8.494;2023-05-29T04:35:21;101064.13;;;13.19;77.38
16355;BME280;8287;51.644;8.494;2023-05-29T04:37:49;101058.78;;;13.19;77.24
16355;BME280;8287;51.644;8.494;2023-05-29T04:40:15;101063.09;;;13.28;74.92
16355;BME280;8287;51.644;8.494;2023-05-29T04:42:43;101060.72;;;13.27;75.50
16355;BME280;8287;51.644;8.494;2023-05-29T04:45:11;101072.94;;;13.28;75.69
16355;BME280;8287;51.644;8.494;2023-05-29T04:47:37;101070.00;;;13.29;76.03
16355;BME280;8287;51.644;8.494;2023-05-29T04:50:09;101077.00;;;13.25;77.56
16355;BME280;8287;51.644;8.494;2023-05-29T04:52:36;101080.00;;;13.32;75.57
16355;BME280;8287;51.644;8.494;2023-05-29T04:55:05;101086.06;;;13.24;76.84
16355;BME280;8287;51.644;8.494;2023-05-29T04:57:32;101088.72;;;13.24;77.37
16355;BME280;8287;51.644;8.494;2023-05-29T04:59:58;101082.31;;;13.25;76.28
16355;BME280;8287;51.644;8.494;2023-05-29T05:02:25;101077.13;;;13.21;77.42
16355;BME280;8287;51.644;8.494;2023-05-29T05:04:51;101081.47;;;13.17;77.63
16355;BME280;8287;51.644;8.494;2023-05-29T05:07:18;101093.44;;;13.27;77.12
16355;BME280;8287;51.644;8.494;2023-05-29T05:09:45;101101.00;;;13.34;76.78
16355;BME280;8287;51.644;8.494;2023-05-29T05:12:12;101103.16;;;13.32;77.62
16355;BME280;8287;51.644;8.494;2023-05-29T05:14:39;101110.69;;;13.30;78.42
16355;BME280;8287;51.644;8.494;2023-05-29T05:17:06;101114.25;;;13.25;79.49
16355;BME280;8287;51.644;8.494;2023-05-29T05:19:32;101112.91;;;13.36;79.10
16355;BME280;8287;51.644;8.494;2023-05-29T05:21:59;101110.03;;;13.46;78.26
16355;BME280;8287;51.644;8.494;2023-05-29T05:24:25;101108.19;;;13.55;77.38
16355;BME280;8287;51.644;8.494;2023-05-29T05:26:52;101109.22;;;13.68;76.75
16355;BME280;8287;51.644;8.494;2023-05-29T05:29:20;101107.06;;;13.78;76.62
16355;BME280;8287;51.644;8.494;2023-05-29T05:31:46;101097.03;;;13.75;77.59
16355;BME280;8287;51.644;8.494;2023-05-29T05:34:13;101095.34;;;13.79;77.29
16355;BME280;8287;51.644;8.494;2023-05-29T05:36:39;101084.22;;;13.86;76.95
16355;BME280;8287;51.644;8.494;2023-05-29T05:39:06;101092.88;;;13.91;77.16
16355;BME280;8287;51.644;8.494;2023-05-29T05:41:32;101089.94;;;14.01;76.46
16355;BME280;8287;51.644;8.494;2023-05-29T05:43:59;101092.94;;;14.08;75.65
16355;BME280;8287;51.644;8.494;2023-05-29T05:46:27;101096.56;;;14.12;75.79
16355;BME280;8287;51.644;8.494;2023-05-29T05:48:54;101095.53;;;14.22;75.25
16355;BME280;8287;51.644;8.494;2023-05-29T05:51:22;101098.34;;;14.25;74.56
16355;BME280;8287;51.644;8.494;2023-05-29T05:53:49;101089.72;;;14.28;74.70
16355;BME280;8287;51.644;8.494;2023-05-29T05:56:16;101103.41;;;14.35;74.62
16355;BME280;8287;51.644;8.494;2023-05-29T05:58:42;101104.78;;;14.33;75.06
16355;BME280;8287;51.644;8.494;2023-05-29T06:01:09;101097.47;;;14.38;73.51
16355;BME280;8287;51.644;8.494;2023-05-29T06:03:37;101104.69;;;14.46;73.87
16355;BME280;8287;51.644;8.494;2023-05-29T06:06:04;101105.63;;;14.50;74.42
16355;BME280;8287;51.644;8.494;2023-05-29T06:08:30;101098.09;;;14.52;74.83
16355;BME280;8287;51.644;8.494;2023-05-29T06:10:57;101107.53;;;14.58;73.82
16355;BME280;8287;51.644;8.494;2023-05-29T06:13:24;101112.88;;;14.58;74.88
16355;BME280;8287;51.644;8.494;2023-05-29T06:15:50;101117.56;;;14.61;73.20
16355;BME280;8287;51.644;8.494;2023-05-29T06:18:17;101111.97;;;14.71;72.48
16355;BME280;8287;51.644;8.494;2023-05-29T06:20:45;101119.50;;;14.78;72.80
16355;BME280;8287;51.644;8.494;2023-05-29T06:23:11;101123.09;;;14.82;72.19
16355;BME280;8287;51.644;8.494;2023-05-29T06:25:38;101127.97;;;14.80;72.39
16355;BME280;8287;51.644;8.494;2023-05-29T06:28:04;101116.38;;;14.93;71.95
16355;BME280;8287;51.644;8.494;2023-05-29T06:30:32;101120.28;;;14.87;73.60
16355;BME280;8287;51.644;8.494;2023-05-29T06:32:58;101117.47;;;15.00;73.16
16355;BME280;8287;51.644;8.494;2023-05-29T06:35:25;101118.56;;;15.08;72.75
16355;BME280;8287;51.644;8.494;2023-05-29T06:37:53;101114.50;;;15.19;72.35
16355;BME280;8287;51.644;8.494;2023-05-29T06:40:20;101110.72;;;14.94;72.35
16355;BME280;8287;51.644;8.494;2023-05-29T06:42:46;101121.09;;;15.21;72.15
16355;BME280;8287;51.644;8.494;2023-05-29T06:45:13;101115.59;;;14.92;71.64
16355;BME280;8287;51.644;8.494;2023-05-29T06:47:40;101104.75;;;15.23;72.14
16355;BME280;8287;51.644;8.494;2023-05-29T06:50:08;101107.75;;;15.38;72.25
16355;BME280;8287;51.644;8.494;2023-05-29T06:52:34;101114.03;;;15.51;71.84
16355;BME280;8287;51.644;8.494;2023-05-29T06:55:03;101112.59;;;15.45;71.45
16355;BME280;8287;51.644;8.494;2023-05-29T06:57:30;101109.72;;;15.75;70.65
16355;BME280;8287;51.644;8.494;2023-05-29T06:59:56;101111.41;;;15.80;70.16
16355;BME280;8287;51.644;8.494;2023-05-29T07:02:23;101111.72;;;15.87;69.48
16355;BME280;8287;51.644;8.494;2023-05-29T07:04:49;101106.53;;;15.90;69.65
16355;BME280;8287;51.644;8.494;2023-05-29T07:07:16;101117.00;;;16.04;68.56
16355;BME280;8287;51.644;8.494;2023-05-29T07:09:43;101115.22;;;16.16;67.90
16355;BME280;8287;51.644;8.494;2023-05-29T07:12:11;101117.06;;;16.24;67.41
16355;BME280;8287;51.644;8.494;2023-05-29T07:14:37;101119.59;;;16.21;66.91
16355;BME280;8287;51.644;8.494;2023-05-29T07:17:04;101119.88;;;16.28;67.58
16355;BME280;8287;51.644;8.494;2023-05-29T07:19:31;101120.94;;;16.44;67.99
16355;BME280;8287;51.644;8.494;2023-05-29T07:21:59;101128.59;;;16.54;67.14
16355;BME280;8287;51.644;8.494;2023-05-29T07:24:25;101133.97;;;16.74;67.84
16355;BME280;8287;51.644;8.494;2023-05-29T07:26:52;101140.88;;;16.75;67.10
16355;BME280;8287;51.644;8.494;2023-05-29T07:29:22;101139.78;;;16.96;66.80
16355;BME280;8287;51.644;8.494;2023-05-29T07:31:49;101147.25;;;16.91;67.06
16355;BME280;8287;51.644;8.494;2023-05-29T07:34:16;101151.78;;;16.90;65.22
16355;BME280;8287;51.644;8.494;2023-05-29T07:36:56;101142.00;;;17.15;65.13
16355;BME280;8287;51.644;8.494;2023-05-29T07:39:23;101154.78;;;17.30;65.27
16355;BME280;8287;51.644;8.494;2023-05-29T07:41:50;101150.56;;;17.08;61.96
16355;BME280;8287;51.644;8.494;2023-05-29T07:44:16;101155.72;;;16.93;66.25
16355;BME280;8287;51.644;8.494;2023-05-29T07:46:44;101147.41;;;17.27;65.95
16355;BME280;8287;51.644;8.494;2023-05-29T07:49:11;101144.28;;;17.25;63.30
16355;BME280;8287;51.644;8.494;2023-05-29T07:51:38;101154.22;;;17.45;64.58
16355;BME280;8287;51.644;8.494;2023-05-29T07:54:05;101149.63;;;17.66;63.05
16355;BME280;8287;51.644;8.494;2023-05-29T07:56:31;101144.59;;;17.76;62.73
16355;BME280;8287;51.644;8.494;2023-05-29T07:58:59;101148.75;;;17.86;62.16
16355;BME280;8287;51.644;8.494;2023-05-29T08:01:26;101145.66;;;17.96;63.28
16355;BME280;8287;51.644;8.494;2023-05-29T08:03:54;101142.75;;;18.01;63.55
16355;BME280;8287;51.644;8.494;2023-05-29T08:06:21;101144.28;;;17.78;62.29
16355;BME280;8287;51.644;8.494;2023-05-29T08:08:47;101141.56;;;18.10;62.08
16355;BME280;8287;51.644;8.494;2023-05-29T08:11:14;101144.53;;;17.85;61.83
16355;BME280;8287;51.644;8.494;2023-05-29T08:13:40;101150.56;;;17.49;61.82
16355;BME280;8287;51.644;8.494;2023-05-29T08:16:07;101145.00;;;17.99;63.05
16355;BME280;8287;51.644;8.494;2023-05-29T08:18:34;101150.94;;;18.16;62.69
16355;BME280;8287;51.644;8.494;2023-05-29T08:21:02;101148.19;;;18.37;62.81
16355;BME280;8287;51.644;8.494;2023-05-29T08:23:29;101148.41;;;18.44;62.21
16355;BME280;8287;51.644;8.494;2023-05-29T08:25:57;101132.97;;;18.53;62.26
16355;BME280;8287;51.644;8.494;2023-05-29T08:28:23;101138.78;;;18.67;60.64
16355;BME280;8287;51.644;8.494;2023-05-29T08:30:52;101129.00;;;18.86;59.97
16355;BME280;8287;51.644;8.494;2023-05-29T08:33:18;101144.22;;;18.82;59.62
16355;BME280;8287;51.644;8.494;2023-05-29T08:35:45;101136.00;;;19.03;60.57
16355;BME280;8287;51.644;8.494;2023-05-29T08:38:13;101137.84;;;18.87;60.10
16355;BME280;8287;51.644;8.494;2023-05-29T08:40:40;101137.97;;;19.18;57.47
16355;BME280;8287;51.644;8.494;2023-05-29T08:43:12;101140.56;;;18.75;57.46
16355;BME280;8287;51.644;8.494;2023-05-29T08:45:42;101143.47;;;18.82;60.06
16355;BME280;8287;51.644;8.494;2023-05-29T08:48:10;101143.34;;;19.18;59.43
16355;BME280;8287;51.644;8.494;2023-05-29T08:50:40;101143.09;;;19.35;57.96
16355;BME280;8287;51.644;8.494;2023-05-29T08:53:09;101142.50;;;19.41;59.59
16355;BME280;8287;51.644;8.494;2023-05-29T08:55:37;101135.13;;;19.38;59.24
16355;BME280;8287;51.644;8.494;2023-05-29T08:58:04;101142.75;;;19.36;57.91
16355;BME280;8287;51.644;8.494;2023-05-29T09:00:31;101139.66;;;18.71;59.63
16355;BME280;8287;51.644;8.494;2023-05-29T09:02:58;101148.75;;;19.06;59.58
16355;BME280;8287;51.644;8.494;2023-05-29T09:05:26;101144.75;;;19.00;57.53
16355;BME280;8287;51.644;8.494;2023-05-29T09:07:52;101151.72;;;18.65;59.28
16355;BME280;8287;51.644;8.494;2023-05-29T09:10:19;101144.72;;;19.12;60.25
16355;BME280;8287;51.644;8.494;2023-05-29T09:12:48;101147.47;;;19.27;59.33
16355;BME280;8287;51.644;8.494;2023-05-29T09:15:18;101149.63;;;19.22;57.63
16355;BME280;8287;51.644;8.494;2023-05-29T09:17:49;101160.25;;;19.30;57.91
16355;BME280;8287;51.644;8.494;2023-05-29T09:20:17;101152.34;;;19.65;59.14
16355;BME280;8287;51.644;8.494;2023-05-29T09:22:52;101154.06;;;19.57;59.00
16355;BME280;8287;51.644;8.494;2023-05-29T09:25:20;101161.28;;;19.53;56.48
16355;BME280;8287;51.644;8.494;2023-05-29T09:27:51;101159.56;;;19.61;54.71
16355;BME280;8287;51.644;8.494;2023-05-29T09:30:31;101160.78;;;19.36;57.93
16355;BME280;8287;51.644;8.494;2023-05-29T09:32:59;101160.78;;;19.36;56.31
16355;BME280;8287;51.644;8.494;2023-05-29T09:35:32;101155.50;;;19.67;58.01
16355;BME280;8287;51.644;8.494;2023-05-29T09:37:59;101157.34;;;19.78;58.08
16355;BME280;8287;51.644;8.494;2023-05-29T09:40:25;101162.09;;;20.12;58.35
16355;BME280;8287;51.644;8.494;2023-05-29T09:42:53;101175.88;;;20.11;55.75
16355;BME280;8287;51.644;8.494;2023-05-29T09:45:20;101160.06;;;20.09;57.13
16355;BME280;8287;51.644;8.494;2023-05-29T09:47:50;101162.41;;;20.42;56.33
16355;BME280;8287;51.644;8.494;2023-05-29T09:50:18;101158.16;;;20.25;56.07
16355;BME280;8287;51.644;8.494;2023-05-29T09:52:46;101158.16;;;20.10;56.43
16355;BME280;8287;51.644;8.494;2023-05-29T09:55:18;101148.63;;;20.28;52.75
16355;BME280;8287;51.644;8.494;2023-05-29T09:57:47;101153.66;;;20.14;56.93
16355;BME280;8287;51.644;8.494;2023-05-29T10:00:17;101154.25;;;20.38;56.70
16355;BME280;8287;51.644;8.494;2023-05-29T10:02:45;101145.66;;;20.33;55.00
16355;BME280;8287;51.644;8.494;2023-05-29T10:05:11;101145.41;;;20.22;55.20
16355;BME280;8287;51.644;8.494;2023-05-29T10:07:43;101149.38;;;20.43;56.36
16355;BME280;8287;51.644;8.494;2023-05-29T10:10:11;101157.44;;;20.59;56.48
16355;BME280;8287;51.644;8.494;2023-05-29T10:12:41;101155.53;;;20.59;53.61
16355;BME280;8287;51.644;8.494;2023-05-29T10:15:12;101144.28;;;20.73;54.46
16355;BME280;8287;51.644;8.494;2023-05-29T10:17:46;101145.03;;;20.73;56.04
16355;BME280;8287;51.644;8.494;2023-05-29T10:20:16;101146.19;;;20.88;53.54
16355;BME280;8287;51.644;8.494;2023-05-29T10:22:45;101143.84;;;21.05;54.18
16355;BME280;8287;51.644;8.494;2023-05-29T10:25:13;101155.50;;;21.09;54.63
16355;BME280;8287;51.644;8.494;2023-05-29T10:27:39;101152.22;;;21.00;52.97
16355;BME280;8287;51.644;8.494;2023-05-29T10:30:10;101147.19;;;21.18;52.23
16355;BME280;8287;51.644;8.494;2023-05-29T10:33:05;101142.94;;;21.17;53.00
16355;BME280;8287;51.644;8.494;2023-05-29T10:35:40;101132.94;;;20.83;51.76
16355;BME280;8287;51.644;8.494;2023-05-29T10:38:11;101129.03;;;20.96;50.61
16355;BME280;8287;51.644;8.494;2023-05-29T10:40:38;101133.38;;;21.19;53.62
16355;BME280;8287;51.644;8.494;2023-05-29T10:43:05;101123.66;;;20.96;52.16
16355;BME280;8287;51.644;8.494;2023-05-29T10:45:50;101120.59;;;21.35;53.36
16355;BME280;8287;51.644;8.494;2023-05-29T10:48:40;101130.22;;;20.64;52.81
16355;BME280;8287;51.644;8.494;2023-05-29T10:51:08;101133.75;;;20.83;51.93
16355;BME280;8287;51.644;8.494;2023-05-29T10:53:35;101120.44;;;21.28;53.98
16355;BME280;8287;51.644;8.494;2023-05-29T10:56:08;101119.59;;;21.43;53.13
16355;BME280;8287;51.644;8.494;2023-05-29T10:58:36;101132.94;;;21.36;52.76
16355;BME280;8287;51.644;8.494;2023-05-29T11:01:03;101127.41;;;21.10;51.66
16355;BME280;8287;51.644;8.494;2023-05-29T11:03:30;101120.63;;;21.58;53.71
16355;BME280;8287;51.644;8.494;2023-05-29T11:06:00;101132.00;;;20.91;51.92
16355;BME280;8287;51.644;8.494;2023-05-29T11:08:33;101134.28;;;20.73;51.81
16355;BME280;8287;51.644;8.494;2023-05-29T11:11:01;101135.75;;;20.86;53.03
16355;BME280;8287;51.644;8.494;2023-05-29T11:13:32;101127.25;;;21.03;51.64
16355;BME280;8287;51.644;8.494;2023-05-29T11:16:11;101122.75;;;21.49;52.90
16355;BME280;8287;51.644;8.494;2023-05-29T11:18:40;101119.41;;;21.97;50.69
16355;BME280;8287;51.644;8.494;2023-05-29T11:21:15;101120.53;;;21.73;51.32
16355;BME280;8287;51.644;8.494;2023-05-29T11:23:50;101122.69;;;21.45;51.42
16355;BME280;8287;51.644;8.494;2023-05-29T11:26:17;101131.28;;;21.92;52.23
16355;BME280;8287;51.644;8.494;2023-05-29T11:28:44;101120.06;;;22.13;52.14
16355;BME280;8287;51.644;8.494;2023-05-29T11:31:11;101123.69;;;22.46;50.43
16355;BME280;8287;51.644;8.494;2023-05-29T11:33:40;101130.28;;;22.49;49.55
16355;BME280;8287;51.644;8.494;2023-05-29T11:36:09;101121.22;;;22.90;49.10
16355;BME280;8287;51.644;8.494;2023-05-29T11:38:36;101117.00;;;22.66;47.66
16355;BME280;8287;51.644;8.494;2023-05-29T11:41:03;101117.66;;;22.86;50.24
16355;BME280;8287;51.644;8.494;2023-05-29T11:43:31;101118.63;;;21.96;46.82
16355;BME280;8287;51.644;8.494;2023-05-29T11:45:58;101121.59;;;22.62;50.91
16355;BME280;8287;51.644;8.494;2023-05-29T11:48:25;101128.28;;;22.42;46.93
16355;BME280;8287;51.644;8.494;2023-05-29T11:50:52;101128.19;;;22.39;47.14
16355;BME280;8287;51.644;8.494;2023-05-29T11:53:20;101117.47;;;22.42;44.02
16355;BME280;8287;51.644;8.494;2023-05-29T11:55:47;101111.91;;;21.87;46.11
16355;BME280;8287;51.644;8.494;2023-05-29T11:58:14;101120.03;;;22.61;48.11
16355;BME280;8287;51.644;8.494;2023-05-29T12:00:41;101127.31;;;22.57;48.55
16355;BME280;8287;51.644;8.494;2023-05-29T12:03:08;101116.66;;;22.97;47.50
16355;BME280;8287;51.644;8.494;2023-05-29T12:05:44;101110.66;;;22.81;49.87
16355;BME280;8287;51.644;8.494;2023-05-29T12:08:12;101112.75;;;22.39;47.85
16355;BME280;8287;51.644;8.494;2023-05-29T12:10:46;101101.63;;;22.70;49.19
16355;BME280;8287;51.644;8.494;2023-05-29T12:13:13;101117.25;;;22.54;47.42
16355;BME280;8287;51.644;8.494;2023-05-29T12:15:40;101105.53;;;22.73;47.34
16355;BME280;8287;51.644;8.494;2023-05-29T12:18:07;101103.28;;;22.78;48.55
16355;BME280;8287;51.644;8.494;2023-05-29T12:20:34;101098.56;;;23.31;47.32
16355;BME280;8287;51.644;8.494;2023-05-29T12:23:01;101106.13;;;23.51;42.12
16355;BME280;8287;51.644;8.494;2023-05-29T12:25:28;101111.88;;;22.32;47.40
16355;BME280;8287;51.644;8.494;2023-05-29T12:27:56;101116.97;;;22.63;47.65
16355;BME280;8287;51.644;8.494;2023-05-29T12:30:23;101104.41;;;23.36;47.58
16355;BME280;8287;51.644;8.494;2023-05-29T12:32:51;101106.75;;;23.81;45.69
16355;BME280;8287;51.644;8.494;2023-05-29T12:35:20;101104.47;;;23.43;45.34
16355;BME280;8287;51.644;8.494;2023-05-29T12:37:48;101108.25;;;23.75;45.57
16355;BME280;8287;51.644;8.494;2023-05-29T12:40:19;101108.59;;;24.13;44.18
16355;BME280;8287;51.644;8.494;2023-05-29T12:42:47;101102.31;;;23.99;42.99
16355;BME280;8287;51.644;8.494;2023-05-29T12:45:17;101099.72;;;23.73;44.10
16355;BME280;8287;51.644;8.494;2023-05-29T12:47:51;101096.56;;;23.64;45.91
16355;BME280;8287;51.644;8.494;2023-05-29T12:50:22;101100.47;;;24.10;45.67
16355;BME280;8287;51.644;8.494;2023-05-29T12:52:57;101104.06;;;24.28;43.79
16355;BME280;8287;51.644;8.494;2023-05-29T12:55:24;101097.72;;;24.03;44.96
16355;BME280;8287;51.644;8.494;2023-05-29T12:57:50;101087.19;;;23.95;42.09
16355;BME280;8287;51.644;8.494;2023-05-29T13:00:20;101100.56;;;23.08;44.86
16355;BME280;8287;51.644;8.494;2023-05-29T13:02:47;101086.63;;;23.35;47.89
16355;BME280;8287;51.644;8.494;2023-05-29T13:05:14;101085.00;;;23.71;45.16
16355;BME280;8287;51.644;8.494;2023-05-29T13:07:44;101082.09;;;24.43;42.27